sensor_id;sensor_type;location;lat;lon;timestamp;P1;durP1;ratioP1;P2;durP2;ratioP2
35907;SDS011;22003;50.320;8.054;2023-03-14T05:00:55;3.35;;;0.90;;
35907;SDS011;22003;50.320;8.054;2023-03-14T05:03:20;3.55;;;0.77;;
35907;SDS011;22003;50.320;8.054;2023-03-14T05:05:45;6.10;;;0.88;;
35907;SDS011;22003;50.320;8.054;2023-03-14T05:08:11;2.65;;;0.65;;
35907;SDS011;22003;50.320;8.054;2023-03-14T05:10:36;6.18;;;0.70;;
35907;SDS011;22003;50.320;8.054;2023-03-14T05:13:02;1.98;;;0.43;;
35907;SDS011;22003;50.320;8.054;2023-03-14T05:15:27;4.80;;;0.82;;
35907;SDS011;22003;50.320;8.054;2023-03-14T05:17:52;4.07;;;1.00;;
35907;SDS011;22003;50.320;8.054;2023-03-14T05:20:19;0.63;;;0.35;;
35907;SDS011;22003;50.320;8.054;2023-03-14T05:22:44;2.20;;;0.50;;
35907;SDS011;22003;50.320;8.054;2023-03-14T05:25:09;2.70;;;0.50;;
35907;SDS011;22003;50.320;8.054;2023-03-14T05:27:35;0.80;;;0.50;;
35907;SDS011;22003;50.320;8.054;2023-03-14T05:30:01;3.25;;;0.80;;
35907;SDS011;22003;50.320;8.054;2023-03-14T05:32:28;2.92;;;0.57;;
35907;SDS011;22003;50.320;8.054;2023-03-14T05:34:53;3.75;;;0.73;;
35907;SDS011;22003;50.320;8.054;2023-03-14T05:37:23;2.95;;;0.60;;
35907;SDS011;22003;50.320;8.054;2023-03-14T05:39:48;1.98;;;0.70;;
35907;SDS011;22003;50.320;8.054;2023-03-14T05:42:13;1.77;;;0.50;;
35907;SDS011;22003;50.320;8.054;2023-03-14T05:44:38;0.60;;;0.40;;
35907;SDS011;22003;50.320;8.054;2023-03-14T05:47:04;1.48;;;0.63;;
35907;SDS011;22003;50.320;8.054;2023-03-14T05:49:29;1.13;;;0.30;;
35907;SDS011;22003;50.320;8.054;2023-03-14T05:51:54;0.80;;;0.32;;
35907;SDS011;22003;50.320;8.054;2023-03-14T05:54:20;2.35;;;0.45;;
35907;SDS011;22003;50.320;8.054;2023-03-14T05:56:45;0.73;;;0.30;;
35907;SDS011;22003;50.320;8.054;2023-03-14T05:59:10;0.93;;;0.28;;
35907;SDS011;22003;50.320;8.054;2023-03-14T06:01:35;2.38;;;0.70;;
35907;SDS011;22003;50.320;8.054;2023-03-14T06:04:00;2.17;;;0.40;;
35907;SDS011;22003;50.320;8.054;2023-03-14T06:06:26;0.95;;;0.25;;
35907;SDS011;22003;50.320;8.054;2023-03-14T06:08:51;0.20;;;0.17;;
35907;SDS011;22003;50.320;8.054;2023-03-14T06:11:16;2.65;;;1.25;;
35907;SDS011;22003;50.320;8.054;2023-03-14T06:13:42;4.15;;;1.40;;
35907;SDS011;22003;50.320;8.054;2023-03-14T06:16:07;1.05;;;0.50;;
35907;SDS011;22003;50.320;8.054;2023-03-14T06:18:33;2.38;;;1.10;;
35907;SDS011;22003;50.320;8.054;2023-03-14T06:20:58;2.28;;;0.47;;
35907;SDS011;22003;50.320;8.054;2023-03-14T06:23:24;0.95;;;0.50;;
35907;SDS011;22003;50.320;8.054;2023-03-14T06:25:50;1.25;;;0.47;;
35907;SDS011;22003;50.320;8.054;2023-03-14T06:28:15;0.80;;;0.30;;
35907;SDS011;22003;50.320;8.054;2023-03-14T06:30:40;2.47;;;0.40;;
35907;SDS011;22003;50.320;8.054;2023-03-14T06:33:06;0.55;;;0.30;;
35907;SDS011;22003;50.320;8.054;2023-03-14T06:35:31;4.38;;;0.75;;
35907;SDS011;22003;50.320;8.054;2023-03-14T06:37:56;6.18;;;1.48;;
35907;SDS011;22003;50.320;8.054;2023-03-14T06:40:21;2.05;;;0.60;;
35907;SDS011;22003;50.320;8.054;2023-03-14T06:42:47;1.52;;;0.80;;
35907;SDS011;22003;50.320;8.054;2023-03-14T06:45:13;1.85;;;0.40;;
35907;SDS011;22003;50.320;8.054;2023-03-14T06:47:39;0.63;;;0.47;;
35907;SDS011;22003;50.320;8.054;2023-03-14T06:50:05;3.53;;;0.65;;
35907;SDS011;22003;50.320;8.054;2023-03-14T06:52:31;2.22;;;0.50;;
35907;SDS011;22003;50.320;8.054;2023-03-14T06:54:57;2.80;;;0.70;;
35907;SDS011;22003;50.320;8.054;2023-03-14T06:57:22;1.15;;;0.50;;
35907;SDS011;22003;50.320;8.054;2023-03-14T06:59:47;2.70;;;0.32;;
35907;SDS011;22003;50.320;8.054;2023-03-14T07:02:13;1.20;;;0.50;;
35907;SDS011;22003;50.320;8.054;2023-03-14T07:04:38;1.75;;;0.50;;
35907;SDS011;22003;50.320;8.054;2023-03-14T07:07:04;0.57;;;0.30;;
35907;SDS011;22003;50.320;8.054;2023-03-14T07:09:29;1.75;;;1.10;;
35907;SDS011;22003;50.320;8.054;2023-03-14T07:11:55;0.55;;;0.40;;
35907;SDS011;22003;50.320;8.054;2023-03-14T07:14:20;2.10;;;0.60;;
35907;SDS011;22003;50.320;8.054;2023-03-14T07:16:45;3.00;;;0.68;;
35907;SDS011;22003;50.320;8.054;2023-03-14T07:19:10;0.68;;;0.30;;
35907;SDS011;22003;50.320;8.054;2023-03-14T07:21:36;1.45;;;0.50;;
35907;SDS011;22003;50.320;8.054;2023-03-14T07:24:01;1.52;;;1.08;;
35907;SDS011;22003;50.320;8.054;2023-03-14T07:26:26;0.85;;;0.50;;
35907;SDS011;22003;50.320;8.054;2023-03-14T07:28:52;2.55;;;0.65;;
35907;SDS011;22003;50.320;8.054;2023-03-14T07:31:17;6.93;;;0.75;;
35907;SDS011;22003;50.320;8.054;2023-03-14T07:33:43;1.20;;;0.60;;
35907;SDS011;22003;50.320;8.054;2023-03-14T07:36:08;0.90;;;0.50;;
35907;SDS011;22003;50.320;8.054;2023-03-14T07:38:35;1.38;;;0.60;;
35907;SDS011;22003;50.320;8.054;2023-03-14T07:41:01;0.68;;;0.30;;
35907;SDS011;22003;50.320;8.054;2023-03-14T07:43:28;0.28;;;0.20;;
35907;SDS011;22003;50.320;8.054;2023-03-14T07:45:53;1.17;;;0.40;;
35907;SDS011;22003;50.320;8.054;2023-03-14T07:48:18;0.35;;;0.35;;
35907;SDS011;22003;50.320;8.054;2023-03-14T07:50:44;1.63;;;0.68;;
35907;SDS011;22003;50.320;8.054;2023-03-14T07:53:13;1.08;;;0.60;;
35907;SDS011;22003;50.320;8.054;2023-03-14T07:55:39;0.85;;;0.50;;
35907;SDS011;22003;50.320;8.054;2023-03-14T07:58:05;1.23;;;0.80;;
35907;SDS011;22003;50.320;8.054;2023-03-14T08:00:30;1.63;;;0.63;;
35907;SDS011;22003;50.320;8.054;2023-03-14T08:02:55;0.95;;;0.63;;
35907;SDS011;22003;50.320;8.054;2023-03-14T08:05:21;0.88;;;0.50;;
35907;SDS011;22003;50.320;8.054;2023-03-14T08:07:47;1.00;;;0.40;;
35907;SDS011;22003;50.320;8.054;2023-03-14T08:10:12;1.35;;;0.90;;
35907;SDS011;22003;50.320;8.054;2023-03-14T08:12:40;1.35;;;0.30;;
35907;SDS011;22003;50.320;8.054;2023-03-14T08:15:06;1.38;;;0.25;;
35907;SDS011;22003;50.320;8.054;2023-03-14T08:17:31;0.22;;;0.20;;
35907;SDS011;22003;50.320;8.054;2023-03-14T08:19:57;0.50;;;0.20;;
35907;SDS011;22003;50.320;8.054;2023-03-14T08:22:22;0.40;;;0.40;;
35907;SDS011;22003;50.320;8.054;2023-03-14T08:24:47;0.73;;;0.40;;
35907;SDS011;22003;50.320;8.054;2023-03-14T08:27:12;0.57;;;0.30;;
35907;SDS011;22003;50.320;8.054;2023-03-14T08:29:39;1.67;;;0.40;;
35907;SDS011;22003;50.320;8.054;2023-03-14T08:32:06;0.32;;;0.28;;
35907;SDS011;22003;50.320;8.054;2023-03-14T08:34:32;0.57;;;0.30;;
35907;SDS011;22003;50.320;8.054;2023-03-14T08:36:58;0.88;;;0.35;;
35907;SDS011;22003;50.320;8.054;2023-03-14T08:39:24;0.90;;;0.28;;
35907;SDS011;22003;50.320;8.054;2023-03-14T08:41:49;2.45;;;0.65;;
35907;SDS011;22003;50.320;8.054;2023-03-14T08:44:14;0.45;;;0.30;;
35907;SDS011;22003;50.320;8.054;2023-03-14T08:46:40;1.35;;;0.47;;
35907;SDS011;22003;50.320;8.054;2023-03-14T08:49:05;0.55;;;0.30;;
35907;SDS011;22003;50.320;8.054;2023-03-14T08:51:30;1.65;;;0.30;;
35907;SDS011;22003;50.320;8.054;2023-03-14T08:53:55;0.32;;;0.20;;
35907;SDS011;22003;50.320;8.054;2023-03-14T08:56:21;0.90;;;0.28;;
35907;SDS011;22003;50.320;8.054;2023-03-14T08:58:46;1.75;;;0.20;;
35907;SDS011;22003;50.320;8.054;2023-03-14T09:01:11;1.23;;;0.30;;
35907;SDS011;22003;50.320;8.054;2023-03-14T09:03:37;0.93;;;0.20;;
35907;SDS011;22003;50.320;8.054;2023-03-14T09:06:03;0.38;;;0.10;;
35907;SDS011;22003;50.320;8.054;2023-03-14T09:08:29;0.90;;;0.30;;
35907;SDS011;22003;50.320;8.054;2023-03-14T09:10:54;0.30;;;0.10;;
35907;SDS011;22003;50.320;8.054;2023-03-14T09:13:19;1.58;;;0.10;;
35907;SDS011;22003;50.320;8.054;2023-03-14T09:15:46;0.30;;;0.20;;
35907;SDS011;22003;50.320;8.054;2023-03-14T09:18:15;0.63;;;0.10;;
35907;SDS011;22003;50.320;8.054;2023-03-14T09:20:40;0.77;;;0.40;;
35907;SDS011;22003;50.320;8.054;2023-03-14T09:23:06;1.00;;;0.20;;
35907;SDS011;22003;50.320;8.054;2023-03-14T09:25:32;0.20;;;0.20;;
35907;SDS011;22003;50.320;8.054;2023-03-14T09:27:57;1.08;;;0.20;;
35907;SDS011;22003;50.320;8.054;2023-03-14T09:30:22;0.20;;;0.20;;
35907;SDS011;22003;50.320;8.054;2023-03-14T09:32:47;1.17;;;0.20;;
35907;SDS011;22003;50.320;8.054;2023-03-14T09:35:13;0.98;;;0.20;;
35907;SDS011;22003;50.320;8.054;2023-03-14T09:37:38;0.30;;;0.20;;
35907;SDS011;22003;50.320;8.054;2023-03-14T09:40:03;1.15;;;0.45;;
35907;SDS011;22003;50.320;8.054;2023-03-14T09:42:35;0.20;;;0.10;;
35907;SDS011;22003;50.320;8.054;2023-03-14T09:45:04;0.50;;;0.20;;
35907;SDS011;22003;50.320;8.054;2023-03-14T09:47:32;0.00;;;0.00;;
35907;SDS011;22003;50.320;8.054;2023-03-14T09:49:59;0.32;;;0.20;;
35907;SDS011;22003;50.320;8.054;2023-03-14T09:52:35;0.17;;;0.17;;
35907;SDS011;22003;50.320;8.054;2023-03-14T09:55:05;1.35;;;0.30;;
35907;SDS011;22003;50.320;8.054;2023-03-14T09:57:36;1.10;;;0.10;;
35907;SDS011;22003;50.320;8.054;2023-03-14T10:00:04;0.65;;;0.30;;
35907;SDS011;22003;50.320;8.054;2023-03-14T10:02:38;0.13;;;0.10;;
35907;SDS011;22003;50.320;8.054;2023-03-14T10:05:07;0.50;;;0.32;;
35907;SDS011;22003;50.320;8.054;2023-03-14T10:07:40;0.75;;;0.13;;
35907;SDS011;22003;50.320;8.054;2023-03-14T10:10:09;0.60;;;0.20;;
35907;SDS011;22003;50.320;8.054;2023-03-14T10:12:38;0.90;;;0.30;;
35907;SDS011;22003;50.320;8.054;2023-03-14T10:15:08;0.68;;;0.50;;
35907;SDS011;22003;50.320;8.054;2023-03-14T10:17:42;0.40;;;0.30;;
35907;SDS011;22003;50.320;8.054;2023-03-14T10:20:31;0.30;;;0.20;;
35907;SDS011;22003;50.320;8.054;2023-03-14T10:23:45;0.50;;;0.30;;
35907;SDS011;22003;50.320;8.054;2023-03-14T10:25:59;1.00;;;0.20;;
35907;SDS011;22003;50.320;8.054;2023-03-14T10:28:28;0.77;;;0.13;;
35907;SDS011;22003;50.320;8.054;2023-03-14T10:30:56;0.10;;;0.10;;
35907;SDS011;22003;50.320;8.054;2023-03-14T10:33:26;0.10;;;0.10;;
35907;SDS011;22003;50.320;8.054;2023-03-14T10:35:54;0.32;;;0.13;;
35907;SDS011;22003;50.320;8.054;2023-03-14T10:38:23;0.28;;;0.10;;
35907;SDS011;22003;50.320;8.054;2023-03-14T10:40:51;0.82;;;0.20;;
35907;SDS011;22003;50.320;8.054;2023-03-14T10:43:19;0.57;;;0.30;;
35907;SDS011;22003;50.320;8.054;2023-03-14T10:48:24;0.73;;;0.38;;
35907;SDS011;22003;50.320;8.054;2023-03-14T10:50:57;3.03;;;2.05;;
35907;SDS011;22003;50.320;8.054;2023-03-14T10:53:28;9.80;;;5.25;;
35907;SDS011;22003;50.320;8.054;2023-03-14T10:55:58;3.88;;;2.35;;
35907;SDS011;22003;50.320;8.054;2023-03-14T10:58:28;7.88;;;3.65;;
35907;SDS011;22003;50.320;8.054;2023-03-14T11:01:00;0.47;;;0.30;;
35907;SDS011;22003;50.320;8.054;2023-03-14T11:03:36;1.92;;;1.23;;
35907;SDS011;22003;50.320;8.054;2023-03-14T11:06:07;7.40;;;3.10;;
35907;SDS011;22003;50.320;8.054;2023-03-14T11:11:30;3.92;;;1.50;;
35907;SDS011;22003;50.320;8.054;2023-03-14T11:14:29;7.97;;;3.88;;
35907;SDS011;22003;50.320;8.054;2023-03-14T11:16:59;2.67;;;0.90;;
35907;SDS011;22003;50.320;8.054;2023-03-14T11:19:35;0.88;;;0.38;;
35907;SDS011;22003;50.320;8.054;2023-03-14T11:22:13;0.32;;;0.22;;
35907;SDS011;22003;50.320;8.054;2023-03-14T11:24:55;0.98;;;0.30;;
35907;SDS011;22003;50.320;8.054;2023-03-14T11:27:40;1.05;;;0.60;;
35907;SDS011;22003;50.320;8.054;2023-03-14T11:30:19;0.90;;;0.10;;
35907;SDS011;22003;50.320;8.054;2023-03-14T11:33:08;0.28;;;0.13;;
35907;SDS011;22003;50.320;8.054;2023-03-14T11:38:38;1.85;;;0.22;;
35907;SDS011;22003;50.320;8.054;2023-03-14T11:41:13;1.08;;;0.30;;
35907;SDS011;22003;50.320;8.054;2023-03-14T11:43:42;0.82;;;0.10;;
35907;SDS011;22003;50.320;8.054;2023-03-14T11:51:41;0.10;;;0.10;;
35907;SDS011;22003;50.320;8.054;2023-03-14T11:57:01;0.28;;;0.20;;
35907;SDS011;22003;50.320;8.054;2023-03-14T11:59:32;0.45;;;0.45;;
35907;SDS011;22003;50.320;8.054;2023-03-14T12:02:20;0.25;;;0.25;;
35907;SDS011;22003;50.320;8.054;2023-03-14T12:07:38;0.50;;;0.40;;
35907;SDS011;22003;50.320;8.054;2023-03-14T12:10:15;0.30;;;0.30;;
35907;SDS011;22003;50.320;8.054;2023-03-14T12:12:41;0.47;;;0.28;;
35907;SDS011;22003;50.320;8.054;2023-03-14T12:15:15;4.80;;;2.00;;
35907;SDS011;22003;50.320;8.054;2023-03-14T12:17:44;3.13;;;1.90;;
35907;SDS011;22003;50.320;8.054;2023-03-14T12:22:49;3.08;;;2.47;;
35907;SDS011;22003;50.320;8.054;2023-03-14T12:27:47;0.30;;;0.30;;
35907;SDS011;22003;50.320;8.054;2023-03-14T12:30:25;0.82;;;0.55;;
35907;SDS011;22003;50.320;8.054;2023-03-14T12:35:42;1.42;;;1.00;;
35907;SDS011;22003;50.320;8.054;2023-03-14T12:38:21;1.10;;;1.00;;
35907;SDS011;22003;50.320;8.054;2023-03-14T12:43:39;1.95;;;1.80;;
35907;SDS011;22003;50.320;8.054;2023-03-14T12:59:29;3.10;;;1.50;;
35907;SDS011;22003;50.320;8.054;2023-03-14T13:01:59;2.15;;;1.70;;
35907;SDS011;22003;50.320;8.054;2023-03-14T13:04:29;1.20;;;1.10;;
35907;SDS011;22003;50.320;8.054;2023-03-14T13:06:59;1.85;;;1.70;;
35907;SDS011;22003;50.320;8.054;2023-03-14T13:11:51;3.65;;;1.80;;
35907;SDS011;22003;50.320;8.054;2023-03-14T13:14:18;2.28;;;1.55;;
35907;SDS011;22003;50.320;8.054;2023-03-14T13:16:43;4.68;;;2.47;;
35907;SDS011;22003;50.320;8.054;2023-03-14T13:19:13;1.30;;;1.20;;
35907;SDS011;22003;50.320;8.054;2023-03-14T13:21:46;1.80;;;0.80;;
35907;SDS011;22003;50.320;8.054;2023-03-14T13:24:32;1.17;;;1.08;;
35907;SDS011;22003;50.320;8.054;2023-03-14T13:26:58;1.38;;;0.68;;
35907;SDS011;22003;50.320;8.054;2023-03-14T13:29:25;0.82;;;0.68;;
35907;SDS011;22003;50.320;8.054;2023-03-14T13:31:56;1.45;;;0.63;;
35907;SDS011;22003;50.320;8.054;2023-03-14T13:34:28;3.60;;;1.70;;
35907;SDS011;22003;50.320;8.054;2023-03-14T13:36:55;1.27;;;0.70;;
35907;SDS011;22003;50.320;8.054;2023-03-14T13:39:22;2.42;;;0.80;;
35907;SDS011;22003;50.320;8.054;2023-03-14T13:41:53;1.27;;;1.00;;
35907;SDS011;22003;50.320;8.054;2023-03-14T13:44:24;0.70;;;0.55;;
35907;SDS011;22003;50.320;8.054;2023-03-14T13:46:50;1.08;;;0.30;;
35907;SDS011;22003;50.320;8.054;2023-03-14T13:49:22;1.75;;;0.40;;
35907;SDS011;22003;50.320;8.054;2023-03-14T13:51:48;0.50;;;0.50;;
35907;SDS011;22003;50.320;8.054;2023-03-14T13:54:15;0.30;;;0.30;;
35907;SDS011;22003;50.320;8.054;2023-03-14T13:56:42;2.35;;;0.60;;
35907;SDS011;22003;50.320;8.054;2023-03-14T13:59:21;1.05;;;0.90;;
35907;SDS011;22003;50.320;8.054;2023-03-14T14:01:51;0.65;;;0.60;;
35907;SDS011;22003;50.320;8.054;2023-03-14T14:04:19;1.25;;;0.80;;
35907;SDS011;22003;50.320;8.054;2023-03-14T14:06:50;0.82;;;0.63;;
35907;SDS011;22003;50.320;8.054;2023-03-14T14:09:26;1.20;;;0.85;;
35907;SDS011;22003;50.320;8.054;2023-03-14T14:12:01;1.05;;;0.70;;
35907;SDS011;22003;50.320;8.054;2023-03-14T14:14:32;0.80;;;0.77;;
35907;SDS011;22003;50.320;8.054;2023-03-14T14:17:01;1.25;;;1.10;;
35907;SDS011;22003;50.320;8.054;2023-03-14T14:19:32;1.95;;;1.30;;
35907;SDS011;22003;50.320;8.054;2023-03-14T14:22:00;2.65;;;1.50;;
35907;SDS011;22003;50.320;8.054;2023-03-14T14:24:28;2.38;;;1.23;;
35907;SDS011;22003;50.320;8.054;2023-03-14T14:26:59;5.57;;;3.30;;
35907;SDS011;22003;50.320;8.054;2023-03-14T14:29:28;2.67;;;1.65;;
35907;SDS011;22003;50.320;8.054;2023-03-14T14:32:03;2.00;;;1.70;;
35907;SDS011;22003;50.320;8.054;2023-03-14T14:34:37;3.80;;;2.03;;
35907;SDS011;22003;50.320;8.054;2023-03-14T14:37:05;1.58;;;1.48;;
35907;SDS011;22003;50.320;8.054;2023-03-14T14:39:38;1.48;;;1.30;;
35907;SDS011;22003;50.320;8.054;2023-03-14T14:42:04;3.20;;;1.85;;
35907;SDS011;22003;50.320;8.054;2023-03-14T14:44:30;1.95;;;1.67;;
35907;SDS011;22003;50.320;8.054;2023-03-14T14:46:58;3.83;;;1.77;;
35907;SDS011;22003;50.320;8.054;2023-03-14T14:49:28;1.77;;;1.27;;
35907;SDS011;22003;50.320;8.054;2023-03-14T14:52:02;3.42;;;1.52;;
35907;SDS011;22003;50.320;8.054;2023-03-14T14:54:42;2.08;;;1.20;;
35907;SDS011;22003;50.320;8.054;2023-03-14T14:57:17;1.60;;;0.90;;
35907;SDS011;22003;50.320;8.054;2023-03-14T14:59:54;1.67;;;0.85;;
35907;SDS011;22003;50.320;8.054;2023-03-14T15:02:36;1.25;;;1.15;;
35907;SDS011;22003;50.320;8.054;2023-03-14T15:05:14;1.55;;;1.00;;
35907;SDS011;22003;50.320;8.054;2023-03-14T15:07:41;0.95;;;0.60;;
35907;SDS011;22003;50.320;8.054;2023-03-14T15:10:09;1.80;;;1.60;;
35907;SDS011;22003;50.320;8.054;2023-03-14T15:12:36;1.35;;;0.75;;
35907;SDS011;22003;50.320;8.054;2023-03-14T15:15:01;1.38;;;1.13;;
35907;SDS011;22003;50.320;8.054;2023-03-14T15:17:26;0.77;;;0.47;;
35907;SDS011;22003;50.320;8.054;2023-03-14T15:19:52;0.60;;;0.60;;
35907;SDS011;22003;50.320;8.054;2023-03-14T15:22:17;2.47;;;0.55;;
35907;SDS011;22003;50.320;8.054;2023-03-14T15:24:42;1.95;;;0.75;;
35907;SDS011;22003;50.320;8.054;2023-03-14T15:27:12;1.95;;;0.85;;
35907;SDS011;22003;50.320;8.054;2023-03-14T15:29:40;0.98;;;0.88;;
35907;SDS011;22003;50.320;8.054;2023-03-14T15:32:05;2.78;;;0.98;;
35907;SDS011;22003;50.320;8.054;2023-03-14T15:34:31;2.38;;;1.55;;
35907;SDS011;22003;50.320;8.054;2023-03-14T15:36:56;2.22;;;1.00;;
35907;SDS011;22003;50.320;8.054;2023-03-14T15:39:21;3.38;;;1.40;;
35907;SDS011;22003;50.320;8.054;2023-03-14T15:41:46;3.08;;;2.17;;
35907;SDS011;22003;50.320;8.054;2023-03-14T15:44:12;1.95;;;1.27;;
35907;SDS011;22003;50.320;8.054;2023-03-14T15:46:38;3.08;;;1.10;;
35907;SDS011;22003;50.320;8.054;2023-03-14T15:49:03;4.47;;;2.35;;
35907;SDS011;22003;50.320;8.054;2023-03-14T15:51:28;2.55;;;1.50;;
35907;SDS011;22003;50.320;8.054;2023-03-14T15:53:53;5.63;;;3.90;;
35907;SDS011;22003;50.320;8.054;2023-03-14T15:56:19;3.28;;;1.60;;
35907;SDS011;22003;50.320;8.054;2023-03-14T15:58:45;4.03;;;1.27;;
35907;SDS011;22003;50.320;8.054;2023-03-14T16:01:11;1.48;;;0.80;;
35907;SDS011;22003;50.320;8.054;2023-03-14T16:03:37;3.55;;;1.05;;
35907;SDS011;22003;50.320;8.054;2023-03-14T16:06:03;1.05;;;0.90;;
35907;SDS011;22003;50.320;8.054;2023-03-14T16:08:28;1.25;;;0.80;;
35907;SDS011;22003;50.320;8.054;2023-03-14T16:10:54;2.95;;;1.35;;
35907;SDS011;22003;50.320;8.054;2023-03-14T16:13:21;1.33;;;0.88;;
35907;SDS011;22003;50.320;8.054;2023-03-14T16:15:56;0.68;;;0.60;;
35907;SDS011;22003;50.320;8.054;2023-03-14T16:18:23;2.03;;;0.77;;
35907;SDS011;22003;50.320;8.054;2023-03-14T16:20:56;1.55;;;0.90;;
35907;SDS011;22003;50.320;8.054;2023-03-14T16:23:23;0.80;;;0.60;;
35907;SDS011;22003;50.320;8.054;2023-03-14T16:25:49;0.90;;;0.75;;
35907;SDS011;22003;50.320;8.054;2023-03-14T16:28:16;1.38;;;0.77;;
35907;SDS011;22003;50.320;8.054;2023-03-14T16:30:41;1.27;;;0.90;;
35907;SDS011;22003;50.320;8.054;2023-03-14T16:33:07;1.17;;;1.00;;
35907;SDS011;22003;50.320;8.054;2023-03-14T16:35:35;1.40;;;0.90;;
35907;SDS011;22003;50.320;8.054;2023-03-14T16:38:01;2.38;;;0.95;;
35907;SDS011;22003;50.320;8.054;2023-03-14T16:40:26;1.77;;;1.23;;
35907;SDS011;22003;50.320;8.054;2023-03-14T16:42:51;1.40;;;1.27;;
35907;SDS011;22003;50.320;8.054;2023-03-14T16:45:17;1.23;;;1.05;;
35907;SDS011;22003;50.320;8.054;2023-03-14T16:47:43;3.72;;;2.00;;
35907;SDS011;22003;50.320;8.054;2023-03-14T16:50:08;4.60;;;1.92;;
35907;SDS011;22003;50.320;8.054;2023-03-14T16:52:34;2.67;;;1.83;;
35907;SDS011;22003;50.320;8.054;2023-03-14T16:54:59;3.72;;;1.40;;
35907;SDS011;22003;50.320;8.054;2023-03-14T16:57:24;2.78;;;1.20;;
35907;SDS011;22003;50.320;8.054;2023-03-14T16:59:49;4.03;;;1.50;;
35907;SDS011;22003;50.320;8.054;2023-03-14T17:02:15;1.60;;;1.25;;
35907;SDS011;22003;50.320;8.054;2023-03-14T17:04:40;5.00;;;1.20;;
35907;SDS011;22003;50.320;8.054;2023-03-14T17:07:06;6.65;;;1.70;;
35907;SDS011;22003;50.320;8.054;2023-03-14T17:09:31;7.85;;;1.60;;
35907;SDS011;22003;50.320;8.054;2023-03-14T17:11:57;7.55;;;1.70;;
35907;SDS011;22003;50.320;8.054;2023-03-14T17:14:22;8.35;;;2.40;;
35907;SDS011;22003;50.320;8.054;2023-03-14T17:16:50;10.25;;;2.75;;
35907;SDS011;22003;50.320;8.054;2023-03-14T17:19:15;11.50;;;2.70;;
35907;SDS011;22003;50.320;8.054;2023-03-14T17:21:41;13.80;;;4.35;;
35907;SDS011;22003;50.320;8.054;2023-03-14T17:24:06;13.10;;;4.40;;
35907;SDS011;22003;50.320;8.054;2023-03-14T17:26:31;25.40;;;10.63;;
35907;SDS011;22003;50.320;8.054;2023-03-14T17:28:57;21.35;;;9.90;;
35907;SDS011;22003;50.320;8.054;2023-03-14T17:31:22;26.10;;;11.90;;
35907;SDS011;22003;50.320;8.054;2023-03-14T17:33:48;14.38;;;4.90;;
35907;SDS011;22003;50.320;8.054;2023-03-14T17:36:15;7.95;;;3.92;;
35907;SDS011;22003;50.320;8.054;2023-03-14T17:38:42;6.13;;;2.38;;
35907;SDS011;22003;50.320;8.054;2023-03-14T17:41:09;6.50;;;3.95;;
35907;SDS011;22003;50.320;8.054;2023-03-14T17:43:36;7.05;;;3.45;;
35907;SDS011;22003;50.320;8.054;2023-03-14T17:46:03;13.18;;;6.15;;
35907;SDS011;22003;50.320;8.054;2023-03-14T17:48:32;11.40;;;4.45;;
35907;SDS011;22003;50.320;8.054;2023-03-14T17:50:58;13.57;;;7.30;;
35907;SDS011;22003;50.320;8.054;2023-03-14T17:53:23;8.73;;;3.10;;
35907;SDS011;22003;50.320;8.054;2023-03-14T17:55:48;10.05;;;4.95;;
35907;SDS011;22003;50.320;8.054;2023-03-14T17:58:14;16.38;;;7.80;;
35907;SDS011;22003;50.320;8.054;2023-03-14T18:00:40;14.30;;;7.80;;
35907;SDS011;22003;50.320;8.054;2023-03-14T18:03:05;10.52;;;5.63;;
35907;SDS011;22003;50.320;8.054;2023-03-14T18:05:31;8.00;;;4.10;;
35907;SDS011;22003;50.320;8.054;2023-03-14T18:07:56;11.60;;;4.13;;
35907;SDS011;22003;50.320;8.054;2023-03-14T18:10:22;10.15;;;3.05;;
35907;SDS011;22003;50.320;8.054;2023-03-14T18:12:47;9.63;;;4.40;;
35907;SDS011;22003;50.320;8.054;2023-03-14T18:15:12;11.02;;;4.43;;
35907;SDS011;22003;50.320;8.054;2023-03-14T18:17:41;11.55;;;3.53;;
35907;SDS011;22003;50.320;8.054;2023-03-14T18:20:06;13.32;;;3.95;;
35907;SDS011;22003;50.320;8.054;2023-03-14T18:22:36;12.63;;;3.17;;
35907;SDS011;22003;50.320;8.054;2023-03-14T18:25:01;10.05;;;3.78;;
35907;SDS011;22003;50.320;8.054;2023-03-14T18:27:27;10.75;;;4.22;;
35907;SDS011;22003;50.320;8.054;2023-03-14T18:29:53;14.55;;;3.88;;
35907;SDS011;22003;50.320;8.054;2023-03-14T18:32:18;8.65;;;3.17;;
35907;SDS011;22003;50.320;8.054;2023-03-14T18:34:43;18.25;;;4.53;;
35907;SDS011;22003;50.320;8.054;2023-03-14T18:37:08;7.45;;;2.60;;
35907;SDS011;22003;50.320;8.054;2023-03-14T18:39:34;4.82;;;1.83;;
35907;SDS011;22003;50.320;8.054;2023-03-14T18:41:59;7.60;;;1.83;;
35907;SDS011;22003;50.320;8.054;2023-03-14T18:44:24;6.18;;;1.58;;
35907;SDS011;22003;50.320;8.054;2023-03-14T18:46:50;4.45;;;1.67;;
35907;SDS011;22003;50.320;8.054;2023-03-14T18:49:15;9.02;;;2.17;;
35907;SDS011;22003;50.320;8.054;2023-03-14T18:51:40;6.82;;;2.40;;
35907;SDS011;22003;50.320;8.054;2023-03-14T18:54:08;8.13;;;2.05;;
35907;SDS011;22003;50.320;8.054;2023-03-14T18:56:33;5.15;;;1.83;;
35907;SDS011;22003;50.320;8.054;2023-03-14T18:58:58;5.57;;;3.08;;
35907;SDS011;22003;50.320;8.054;2023-03-14T19:01:24;5.70;;;2.20;;
35907;SDS011;22003;50.320;8.054;2023-03-14T19:03:54;8.45;;;3.42;;
35907;SDS011;22003;50.320;8.054;2023-03-14T19:06:19;13.88;;;5.95;;
35907;SDS011;22003;50.320;8.054;2023-03-14T19:08:45;7.72;;;3.05;;
35907;SDS011;22003;50.320;8.054;2023-03-14T19:11:11;9.60;;;3.38;;
35907;SDS011;22003;50.320;8.054;2023-03-14T19:13:38;9.85;;;3.20;;
35907;SDS011;22003;50.320;8.054;2023-03-14T19:16:04;8.45;;;2.58;;
35907;SDS011;22003;50.320;8.054;2023-03-14T19:18:30;9.70;;;2.90;;
35907;SDS011;22003;50.320;8.054;2023-03-14T19:21:06;6.30;;;3.08;;
35907;SDS011;22003;50.320;8.054;2023-03-14T19:23:34;5.85;;;3.10;;
35907;SDS011;22003;50.320;8.054;2023-03-14T19:26:00;5.40;;;2.13;;
35907;SDS011;22003;50.320;8.054;2023-03-14T19:28:28;8.65;;;2.85;;
35907;SDS011;22003;50.320;8.054;2023-03-14T19:30:56;5.88;;;2.80;;
35907;SDS011;22003;50.320;8.054;2023-03-14T19:33:22;10.45;;;3.05;;
35907;SDS011;22003;50.320;8.054;2023-03-14T19:35:47;11.50;;;3.20;;
35907;SDS011;22003;50.320;8.054;2023-03-14T19:38:12;7.90;;;3.47;;
35907;SDS011;22003;50.320;8.054;2023-03-14T19:40:39;11.32;;;3.10;;
35907;SDS011;22003;50.320;8.054;2023-03-14T19:43:05;11.47;;;3.63;;
35907;SDS011;22003;50.320;8.054;2023-03-14T19:45:31;6.28;;;2.40;;
35907;SDS011;22003;50.320;8.054;2023-03-14T19:47:57;8.80;;;2.40;;
35907;SDS011;22003;50.320;8.054;2023-03-14T19:50:23;9.93;;;2.72;;
35907;SDS011;22003;50.320;8.054;2023-03-14T19:52:50;11.30;;;2.83;;
35907;SDS011;22003;50.320;8.054;2023-03-14T19:55:16;22.60;;;4.97;;
35907;SDS011;22003;50.320;8.054;2023-03-14T19:57:41;11.55;;;3.17;;
35907;SDS011;22003;50.320;8.054;2023-03-14T20:00:07;17.85;;;3.20;;
35907;SDS011;22003;50.320;8.054;2023-03-14T20:02:40;8.77;;;3.22;;
35907;SDS011;22003;50.320;8.054;2023-03-14T20:05:06;11.07;;;2.90;;
35907;SDS011;22003;50.320;8.054;2023-03-14T20:07:31;14.90;;;3.20;;
35907;SDS011;22003;50.320;8.054;2023-03-14T20:09:58;12.45;;;3.33;;
35907;SDS011;22003;50.320;8.054;2023-03-14T20:12:23;12.40;;;3.33;;
35907;SDS011;22003;50.320;8.054;2023-03-14T20:14:48;7.85;;;2.78;;
35907;SDS011;22003;50.320;8.054;2023-03-14T20:17:13;8.05;;;2.67;;
35907;SDS011;22003;50.320;8.054;2023-03-14T20:19:39;7.47;;;2.90;;
35907;SDS011;22003;50.320;8.054;2023-03-14T20:22:04;11.02;;;2.97;;
35907;SDS011;22003;50.320;8.054;2023-03-14T20:24:30;9.93;;;2.35;;
35907;SDS011;22003;50.320;8.054;2023-03-14T20:26:56;8.40;;;2.72;;
35907;SDS011;22003;50.320;8.054;2023-03-14T20:29:22;8.18;;;2.72;;
35907;SDS011;22003;50.320;8.054;2023-03-14T20:31:47;11.05;;;2.90;;
35907;SDS011;22003;50.320;8.054;2023-03-14T20:34:12;9.57;;;2.63;;